sensor_id;sensor_type;location;lat;lon;timestamp;P1;durP1;ratioP1;P2;durP2;ratioP2
7539;SDS011;3811;49.006;12.076;2022-12-29T00:02:05;11.60;;;8.10;;
7539;SDS011;3811;49.006;12.076;2022-12-29T00:04:32;8.67;;;7.67;;
7539;SDS011;3811;49.006;12.076;2022-12-29T00:07:00;10.10;;;7.30;;
7539;SDS011;3811;49.006;12.076;2022-12-29T00:09:30;10.60;;;7.27;;
7539;SDS011;3811;49.006;12.076;2022-12-29T00:11:59;8.70;;;7.70;;
7539;SDS011;3811;49.006;12.076;2022-12-29T00:14:26;9.60;;;7.73;;
7539;SDS011;3811;49.006;12.076;2022-12-29T00:17:12;7.87;;;6.77;;
7539;SDS011;3811;49.006;12.076;2022-12-29T00:19:39;8.67;;;6.90;;
7539;SDS011;3811;49.006;12.076;2022-12-29T00:22:36;8.47;;;7.43;;
7539;SDS011;3811;49.006;12.076;2022-12-29T00:25:20;7.73;;;6.53;;
7539;SDS011;3811;49.006;12.076;2022-12-29T00:28:16;10.27;;;7.20;;
7539;SDS011;3811;49.006;12.076;2022-12-29T00:31:00;7.97;;;7.03;;
7539;SDS011;3811;49.006;12.076;2022-12-29T00:33:45;7.27;;;6.07;;
7539;SDS011;3811;49.006;12.076;2022-12-29T00:36:30;11.90;;;6.83;;
7539;SDS011;3811;49.006;12.076;2022-12-29T00:39:01;10.40;;;7.40;;
7539;SDS011;3811;49.006;12.076;2022-12-29T00:41:51;8.47;;;6.43;;
7539;SDS011;3811;49.006;12.076;2022-12-29T00:44:37;7.10;;;6.40;;
7539;SDS011;3811;49.006;12.076;2022-12-29T00:47:04;8.00;;;6.13;;
7539;SDS011;3811;49.006;12.076;2022-12-29T00:49:31;10.83;;;7.67;;
7539;SDS011;3811;49.006;12.076;2022-12-29T00:51:59;9.57;;;6.20;;
7539;SDS011;3811;49.006;12.076;2022-12-29T00:54:27;7.93;;;6.80;;
7539;SDS011;3811;49.006;12.076;2022-12-29T00:56:56;8.47;;;6.70;;
7539;SDS011;3811;49.006;12.076;2022-12-29T00:59:23;8.13;;;6.20;;
7539;SDS011;3811;49.006;12.076;2022-12-29T01:01:53;7.10;;;6.40;;
7539;SDS011;3811;49.006;12.076;2022-12-29T01:04:21;8.90;;;6.73;;
7539;SDS011;3811;49.006;12.076;2022-12-29T01:06:49;8.00;;;6.47;;
7539;SDS011;3811;49.006;12.076;2022-12-29T01:09:16;6.63;;;5.83;;
7539;SDS011;3811;49.006;12.076;2022-12-29T01:12:02;8.07;;;6.63;;
7539;SDS011;3811;49.006;12.076;2022-12-29T01:14:29;8.77;;;7.10;;
7539;SDS011;3811;49.006;12.076;2022-12-29T01:16:58;8.87;;;6.67;;
7539;SDS011;3811;49.006;12.076;2022-12-29T01:19:25;7.77;;;6.17;;
7539;SDS011;3811;49.006;12.076;2022-12-29T01:21:54;8.90;;;5.77;;
7539;SDS011;3811;49.006;12.076;2022-12-29T01:24:22;9.93;;;6.37;;
7539;SDS011;3811;49.006;12.076;2022-12-29T01:26:49;8.60;;;5.90;;
7539;SDS011;3811;49.006;12.076;2022-12-29T01:29:16;8.07;;;6.70;;
7539;SDS011;3811;49.006;12.076;2022-12-29T01:31:47;8.77;;;6.60;;
7539;SDS011;3811;49.006;12.076;2022-12-29T01:34:16;7.87;;;6.40;;
7539;SDS011;3811;49.006;12.076;2022-12-29T01:36:43;8.93;;;6.20;;
7539;SDS011;3811;49.006;12.076;2022-12-29T01:39:11;6.77;;;6.00;;
7539;SDS011;3811;49.006;12.076;2022-12-29T01:41:39;8.47;;;6.60;;
7539;SDS011;3811;49.006;12.076;2022-12-29T01:47:12;8.00;;;5.60;;
7539;SDS011;3811;49.006;12.076;2022-12-29T01:49:43;8.90;;;6.47;;
7539;SDS011;3811;49.006;12.076;2022-12-29T01:52:12;8.47;;;6.47;;
7539;SDS011;3811;49.006;12.076;2022-12-29T01:54:40;7.43;;;6.50;;
7539;SDS011;3811;49.006;12.076;2022-12-29T01:57:10;5.90;;;5.17;;
7539;SDS011;3811;49.006;12.076;2022-12-29T02:02:40;7.80;;;6.00;;
7539;SDS011;3811;49.006;12.076;2022-12-29T02:05:25;6.97;;;6.17;;
7539;SDS011;3811;49.006;12.076;2022-12-29T02:07:57;7.57;;;6.17;;
7539;SDS011;3811;49.006;12.076;2022-12-29T02:10:25;8.20;;;6.43;;
7539;SDS011;3811;49.006;12.076;2022-12-29T02:12:54;7.30;;;6.40;;
7539;SDS011;3811;49.006;12.076;2022-12-29T02:15:24;6.93;;;6.23;;
7539;SDS011;3811;49.006;12.076;2022-12-29T02:18:03;7.93;;;6.77;;
7539;SDS011;3811;49.006;12.076;2022-12-29T02:20:50;6.87;;;6.20;;
7539;SDS011;3811;49.006;12.076;2022-12-29T02:27:08;8.70;;;6.07;;
7539;SDS011;3811;49.006;12.076;2022-12-29T02:29:59;7.47;;;6.37;;
7539;SDS011;3811;49.006;12.076;2022-12-29T02:32:38;10.83;;;6.50;;
7539;SDS011;3811;49.006;12.076;2022-12-29T02:35:15;14.03;;;5.80;;
7539;SDS011;3811;49.006;12.076;2022-12-29T02:37:56;8.23;;;6.23;;
7539;SDS011;3811;49.006;12.076;2022-12-29T02:40:31;8.07;;;5.60;;
7539;SDS011;3811;49.006;12.076;2022-12-29T02:43:07;6.20;;;5.50;;
7539;SDS011;3811;49.006;12.076;2022-12-29T02:45:43;7.27;;;6.00;;
7539;SDS011;3811;49.006;12.076;2022-12-29T02:48:16;6.90;;;5.93;;
7539;SDS011;3811;49.006;12.076;2022-12-29T02:50:51;6.90;;;5.50;;
7539;SDS011;3811;49.006;12.076;2022-12-29T02:53:24;7.93;;;5.67;;
7539;SDS011;3811;49.006;12.076;2022-12-29T02:56:06;6.93;;;4.90;;
7539;SDS011;3811;49.006;12.076;2022-12-29T02:58:33;8.97;;;5.87;;
7539;SDS011;3811;49.006;12.076;2022-12-29T03:01:04;6.30;;;5.70;;
7539;SDS011;3811;49.006;12.076;2022-12-29T03:03:51;7.40;;;5.60;;
7539;SDS011;3811;49.006;12.076;2022-12-29T03:06:39;5.53;;;4.90;;
7539;SDS011;3811;49.006;12.076;2022-12-29T03:09:20;7.33;;;5.47;;
7539;SDS011;3811;49.006;12.076;2022-12-29T03:11:58;8.17;;;5.53;;
7539;SDS011;3811;49.006;12.076;2022-12-29T03:14:45;9.27;;;5.70;;
7539;SDS011;3811;49.006;12.076;2022-12-29T03:17:43;7.73;;;5.93;;
7539;SDS011;3811;49.006;12.076;2022-12-29T03:20:17;6.03;;;5.23;;
7539;SDS011;3811;49.006;12.076;2022-12-29T03:22:51;6.23;;;5.63;;
7539;SDS011;3811;49.006;12.076;2022-12-29T03:25:28;6.73;;;5.33;;
7539;SDS011;3811;49.006;12.076;2022-12-29T03:28:00;7.27;;;5.90;;
7539;SDS011;3811;49.006;12.076;2022-12-29T03:30:33;6.27;;;5.60;;
7539;SDS011;3811;49.006;12.076;2022-12-29T03:33:02;5.87;;;5.17;;
7539;SDS011;3811;49.006;12.076;2022-12-29T03:35:36;6.93;;;4.73;;
7539;SDS011;3811;49.006;12.076;2022-12-29T03:38:10;6.10;;;5.50;;
7539;SDS011;3811;49.006;12.076;2022-12-29T03:40:42;6.10;;;5.37;;
7539;SDS011;3811;49.006;12.076;2022-12-29T03:43:11;5.60;;;5.07;;
7539;SDS011;3811;49.006;12.076;2022-12-29T03:45:40;5.50;;;4.93;;
7539;SDS011;3811;49.006;12.076;2022-12-29T03:48:07;5.67;;;5.00;;
7539;SDS011;3811;49.006;12.076;2022-12-29T03:50:38;6.10;;;5.23;;
7539;SDS011;3811;49.006;12.076;2022-12-29T03:53:06;7.50;;;5.43;;
7539;SDS011;3811;49.006;12.076;2022-12-29T03:55:34;6.53;;;5.13;;
7539;SDS011;3811;49.006;12.076;2022-12-29T03:58:01;5.93;;;5.10;;
7539;SDS011;3811;49.006;12.076;2022-12-29T04:00:46;6.43;;;5.80;;
7539;SDS011;3811;49.006;12.076;2022-12-29T04:03:14;7.37;;;5.47;;
7539;SDS011;3811;49.006;12.076;2022-12-29T04:05:43;8.77;;;5.20;;
7539;SDS011;3811;49.006;12.076;2022-12-29T04:08:10;6.10;;;5.50;;
7539;SDS011;3811;49.006;12.076;2022-12-29T04:10:37;6.13;;;5.50;;
7539;SDS011;3811;49.006;12.076;2022-12-29T04:13:06;6.83;;;5.70;;
7539;SDS011;3811;49.006;12.076;2022-12-29T04:15:33;6.37;;;5.23;;
7539;SDS011;3811;49.006;12.076;2022-12-29T04:18:01;6.30;;;5.53;;
7539;SDS011;3811;49.006;12.076;2022-12-29T04:20:29;6.83;;;5.50;;
7539;SDS011;3811;49.006;12.076;2022-12-29T04:23:15;6.70;;;5.00;;
7539;SDS011;3811;49.006;12.076;2022-12-29T04:25:44;6.13;;;5.10;;
7539;SDS011;3811;49.006;12.076;2022-12-29T04:28:12;5.67;;;5.07;;
7539;SDS011;3811;49.006;12.076;2022-12-29T04:30:51;6.00;;;5.40;;
7539;SDS011;3811;49.006;12.076;2022-12-29T04:33:24;7.00;;;5.27;;
7539;SDS011;3811;49.006;12.076;2022-12-29T04:35:52;8.37;;;5.43;;
7539;SDS011;3811;49.006;12.076;2022-12-29T04:38:22;6.80;;;5.40;;
7539;SDS011;3811;49.006;12.076;2022-12-29T04:40:50;8.17;;;4.67;;
7539;SDS011;3811;49.006;12.076;2022-12-29T04:43:21;6.17;;;5.47;;
7539;SDS011;3811;49.006;12.076;2022-12-29T04:46:17;6.17;;;4.93;;
7539;SDS011;3811;49.006;12.076;2022-12-29T04:48:56;5.80;;;5.07;;
7539;SDS011;3811;49.006;12.076;2022-12-29T04:51:43;7.00;;;5.43;;
7539;SDS011;3811;49.006;12.076;2022-12-29T04:54:13;5.27;;;4.77;;
7539;SDS011;3811;49.006;12.076;2022-12-29T04:56:43;5.73;;;4.63;;
7539;SDS011;3811;49.006;12.076;2022-12-29T04:59:12;5.90;;;4.90;;
7539;SDS011;3811;49.006;12.076;2022-12-29T05:01:41;6.43;;;5.23;;
7539;SDS011;3811;49.006;12.076;2022-12-29T05:04:08;5.83;;;5.10;;
7539;SDS011;3811;49.006;12.076;2022-12-29T05:06:36;5.60;;;4.73;;
7539;SDS011;3811;49.006;12.076;2022-12-29T05:09:04;6.00;;;5.00;;
7539;SDS011;3811;49.006;12.076;2022-12-29T05:11:34;7.07;;;5.63;;
7539;SDS011;3811;49.006;12.076;2022-12-29T05:14:02;6.90;;;5.07;;
7539;SDS011;3811;49.006;12.076;2022-12-29T05:16:35;5.40;;;4.60;;
7539;SDS011;3811;49.006;12.076;2022-12-29T05:19:02;6.53;;;4.83;;
7539;SDS011;3811;49.006;12.076;2022-12-29T05:21:32;5.90;;;4.83;;
7539;SDS011;3811;49.006;12.076;2022-12-29T05:23:59;5.57;;;5.07;;
7539;SDS011;3811;49.006;12.076;2022-12-29T05:26:27;6.53;;;5.07;;
7539;SDS011;3811;49.006;12.076;2022-12-29T05:29:19;6.50;;;5.30;;
7539;SDS011;3811;49.006;12.076;2022-12-29T05:31:46;6.87;;;5.03;;
7539;SDS011;3811;49.006;12.076;2022-12-29T05:34:13;6.47;;;5.13;;
7539;SDS011;3811;49.006;12.076;2022-12-29T05:36:41;5.67;;;4.97;;
7539;SDS011;3811;49.006;12.076;2022-12-29T05:39:10;6.37;;;5.60;;
7539;SDS011;3811;49.006;12.076;2022-12-29T05:41:37;6.80;;;5.17;;
7539;SDS011;3811;49.006;12.076;2022-12-29T05:44:29;6.07;;;5.27;;
7539;SDS011;3811;49.006;12.076;2022-12-29T05:47:31;5.57;;;5.00;;
7539;SDS011;3811;49.006;12.076;2022-12-29T05:50:09;5.43;;;4.30;;
7539;SDS011;3811;49.006;12.076;2022-12-29T05:52:54;6.20;;;5.27;;
7539;SDS011;3811;49.006;12.076;2022-12-29T05:57:53;7.37;;;5.63;;
7539;SDS011;3811;49.006;12.076;2022-12-29T06:00:22;6.40;;;5.47;;
7539;SDS011;3811;49.006;12.076;2022-12-29T06:02:49;6.70;;;4.93;;
7539;SDS011;3811;49.006;12.076;2022-12-29T06:05:19;7.83;;;5.03;;
7539;SDS011;3811;49.006;12.076;2022-12-29T06:07:46;7.07;;;5.87;;
7539;SDS011;3811;49.006;12.076;2022-12-29T06:10:15;7.03;;;5.13;;
7539;SDS011;3811;49.006;12.076;2022-12-29T06:12:51;5.10;;;4.60;;
7539;SDS011;3811;49.006;12.076;2022-12-29T06:15:18;7.63;;;5.13;;
7539;SDS011;3811;49.006;12.076;2022-12-29T06:17:49;5.80;;;4.70;;
7539;SDS011;3811;49.006;12.076;2022-12-29T06:20:16;8.53;;;5.07;;
7539;SDS011;3811;49.006;12.076;2022-12-29T06:22:44;6.27;;;5.17;;
7539;SDS011;3811;49.006;12.076;2022-12-29T06:25:12;6.50;;;4.40;;
7539;SDS011;3811;49.006;12.076;2022-12-29T06:27:41;7.53;;;4.90;;
7539;SDS011;3811;49.006;12.076;2022-12-29T06:30:09;6.03;;;4.53;;
7539;SDS011;3811;49.006;12.076;2022-12-29T06:32:38;6.53;;;4.50;;
7539;SDS011;3811;49.006;12.076;2022-12-29T06:35:10;9.83;;;4.60;;
7539;SDS011;3811;49.006;12.076;2022-12-29T06:37:43;4.47;;;4.07;;
7539;SDS011;3811;49.006;12.076;2022-12-29T06:40:11;6.03;;;4.67;;
7539;SDS011;3811;49.006;12.076;2022-12-29T06:42:57;7.00;;;4.80;;
7539;SDS011;3811;49.006;12.076;2022-12-29T06:45:43;6.13;;;4.37;;
7539;SDS011;3811;49.006;12.076;2022-12-29T06:48:10;6.50;;;4.80;;
7539;SDS011;3811;49.006;12.076;2022-12-29T06:50:39;5.13;;;4.63;;
7539;SDS011;3811;49.006;12.076;2022-12-29T06:53:06;5.00;;;4.37;;
7539;SDS011;3811;49.006;12.076;2022-12-29T06:55:34;5.40;;;4.90;;
7539;SDS011;3811;49.006;12.076;2022-12-29T06:58:01;5.40;;;4.90;;
7539;SDS011;3811;49.006;12.076;2022-12-29T07:00:28;6.37;;;4.20;;
7539;SDS011;3811;49.006;12.076;2022-12-29T07:02:56;4.70;;;4.23;;
7539;SDS011;3811;49.006;12.076;2022-12-29T07:05:24;5.87;;;4.80;;
7539;SDS011;3811;49.006;12.076;2022-12-29T07:07:59;8.70;;;4.70;;
7539;SDS011;3811;49.006;12.076;2022-12-29T07:10:26;6.03;;;4.77;;
7539;SDS011;3811;49.006;12.076;2022-12-29T07:12:53;6.00;;;5.03;;
7539;SDS011;3811;49.006;12.076;2022-12-29T07:15:20;5.73;;;4.33;;
7539;SDS011;3811;49.006;12.076;2022-12-29T07:17:48;5.80;;;4.90;;
7539;SDS011;3811;49.006;12.076;2022-12-29T07:20:15;5.50;;;4.73;;
7539;SDS011;3811;49.006;12.076;2022-12-29T07:22:43;5.47;;;4.40;;
7539;SDS011;3811;49.006;12.076;2022-12-29T07:25:13;5.57;;;4.33;;
7539;SDS011;3811;49.006;12.076;2022-12-29T07:27:41;5.00;;;4.43;;
7539;SDS011;3811;49.006;12.076;2022-12-29T07:30:08;6.50;;;5.33;;
7539;SDS011;3811;49.006;12.076;2022-12-29T07:32:38;6.67;;;5.40;;
7539;SDS011;3811;49.006;12.076;2022-12-29T07:35:05;7.20;;;5.27;;
7539;SDS011;3811;49.006;12.076;2022-12-29T07:37:35;4.93;;;4.43;;
7539;SDS011;3811;49.006;12.076;2022-12-29T07:40:02;4.87;;;4.43;;
7539;SDS011;3811;49.006;12.076;2022-12-29T07:42:32;6.50;;;4.40;;
7539;SDS011;3811;49.006;12.076;2022-12-29T07:44:59;5.60;;;4.63;;
7539;SDS011;3811;49.006;12.076;2022-12-29T07:47:35;5.70;;;5.03;;
7539;SDS011;3811;49.006;12.076;2022-12-29T07:50:03;10.47;;;5.47;;
7539;SDS011;3811;49.006;12.076;2022-12-29T07:52:30;5.33;;;4.37;;
7539;SDS011;3811;49.006;12.076;2022-12-29T07:54:58;5.40;;;4.90;;
7539;SDS011;3811;49.006;12.076;2022-12-29T07:57:25;5.00;;;4.50;;
7539;SDS011;3811;49.006;12.076;2022-12-29T07:59:54;7.43;;;5.33;;
7539;SDS011;3811;49.006;12.076;2022-12-29T08:02:20;4.83;;;4.33;;
7539;SDS011;3811;49.006;12.076;2022-12-29T08:04:48;7.90;;;5.13;;
7539;SDS011;3811;49.006;12.076;2022-12-29T08:07:15;5.87;;;4.73;;
7539;SDS011;3811;49.006;12.076;2022-12-29T08:09:43;6.80;;;4.97;;
7539;SDS011;3811;49.006;12.076;2022-12-29T08:12:10;5.63;;;4.50;;
7539;SDS011;3811;49.006;12.076;2022-12-29T08:14:37;9.03;;;5.60;;
7539;SDS011;3811;49.006;12.076;2022-12-29T08:17:06;4.77;;;4.27;;
7539;SDS011;3811;49.006;12.076;2022-12-29T08:19:33;4.77;;;4.13;;
7539;SDS011;3811;49.006;12.076;2022-12-29T08:22:00;5.63;;;4.17;;
7539;SDS011;3811;49.006;12.076;2022-12-29T08:24:28;6.93;;;4.40;;
7539;SDS011;3811;49.006;12.076;2022-12-29T08:26:55;6.40;;;4.47;;
7539;SDS011;3811;49.006;12.076;2022-12-29T08:29:22;4.67;;;4.23;;
7539;SDS011;3811;49.006;12.076;2022-12-29T08:31:49;5.03;;;4.50;;
7539;SDS011;3811;49.006;12.076;2022-12-29T08:34:18;5.43;;;4.60;;
7539;SDS011;3811;49.006;12.076;2022-12-29T08:36:46;5.07;;;4.40;;
7539;SDS011;3811;49.006;12.076;2022-12-29T08:39:13;5.20;;;4.60;;
7539;SDS011;3811;49.006;12.076;2022-12-29T08:41:40;5.73;;;4.67;;
7539;SDS011;3811;49.006;12.076;2022-12-29T08:44:07;6.90;;;5.03;;
7539;SDS011;3811;49.006;12.076;2022-12-29T08:46:34;5.27;;;4.50;;
7539;SDS011;3811;49.006;12.076;2022-12-29T08:49:02;4.87;;;4.13;;
7539;SDS011;3811;49.006;12.076;2022-12-29T08:51:30;5.67;;;4.60;;
7539;SDS011;3811;49.006;12.076;2022-12-29T08:53:58;4.87;;;4.30;;
7539;SDS011;3811;49.006;12.076;2022-12-29T08:56:25;7.27;;;4.43;;
7539;SDS011;3811;49.006;12.076;2022-12-29T08:58:55;4.80;;;4.30;;
7539;SDS011;3811;49.006;12.076;2022-12-29T09:01:23;3.93;;;3.63;;
7539;SDS011;3811;49.006;12.076;2022-12-29T09:03:50;5.67;;;3.90;;
7539;SDS011;3811;49.006;12.076;2022-12-29T09:06:17;6.43;;;4.30;;
7539;SDS011;3811;49.006;12.076;2022-12-29T09:08:46;6.10;;;4.43;;
7539;SDS011;3811;49.006;12.076;2022-12-29T09:11:15;4.27;;;3.87;;
7539;SDS011;3811;49.006;12.076;2022-12-29T09:13:43;4.43;;;4.03;;
7539;SDS011;3811;49.006;12.076;2022-12-29T09:16:11;4.37;;;3.83;;
7539;SDS011;3811;49.006;12.076;2022-12-29T09:18:41;4.80;;;4.30;;
7539;SDS011;3811;49.006;12.076;2022-12-29T09:21:09;4.93;;;3.80;;
7539;SDS011;3811;49.006;12.076;2022-12-29T09:23:38;6.30;;;3.90;;
7539;SDS011;3811;49.006;12.076;2022-12-29T09:26:07;4.47;;;3.70;;
7539;SDS011;3811;49.006;12.076;2022-12-29T09:28:39;4.87;;;3.90;;
7539;SDS011;3811;49.006;12.076;2022-12-29T09:31:06;4.53;;;4.13;;
7539;SDS011;3811;49.006;12.076;2022-12-29T09:33:34;4.60;;;4.20;;
7539;SDS011;3811;49.006;12.076;2022-12-29T09:36:01;4.07;;;3.67;;
7539;SDS011;3811;49.006;12.076;2022-12-29T09:38:29;5.00;;;4.30;;
7539;SDS011;3811;49.006;12.076;2022-12-29T09:40:58;4.77;;;4.00;;
7539;SDS011;3811;49.006;12.076;2022-12-29T09:46:39;4.40;;;3.60;;
7539;SDS011;3811;49.006;12.076;2022-12-29T09:49:14;4.43;;;4.03;;
7539;SDS011;3811;49.006;12.076;2022-12-29T09:51:49;5.20;;;3.87;;
7539;SDS011;3811;49.006;12.076;2022-12-29T09:54:24;4.47;;;4.07;;
7539;SDS011;3811;49.006;12.076;2022-12-29T09:57:10;6.13;;;3.97;;
7539;SDS011;3811;49.006;12.076;2022-12-29T09:59:44;5.50;;;4.10;;
7539;SDS011;3811;49.006;12.076;2022-12-29T10:02:16;6.13;;;3.97;;
7539;SDS011;3811;49.006;12.076;2022-12-29T10:04:55;4.20;;;3.53;;
7539;SDS011;3811;49.006;12.076;2022-12-29T10:07:25;4.40;;;3.90;;
7539;SDS011;3811;49.006;12.076;2022-12-29T10:10:01;5.73;;;3.43;;
7539;SDS011;3811;49.006;12.076;2022-12-29T10:12:43;5.53;;;3.90;;
7539;SDS011;3811;49.006;12.076;2022-12-29T10:15:38;5.37;;;3.87;;
7539;SDS011;3811;49.006;12.076;2022-12-29T10:18:19;4.03;;;3.63;;
7539;SDS011;3811;49.006;12.076;2022-12-29T10:20:54;3.97;;;3.67;;
7539;SDS011;3811;49.006;12.076;2022-12-29T10:23:28;4.73;;;3.83;;
7539;SDS011;3811;49.006;12.076;2022-12-29T10:26:00;4.20;;;3.80;;
7539;SDS011;3811;49.006;12.076;2022-12-29T10:28:34;4.23;;;3.63;;
7539;SDS011;3811;49.006;12.076;2022-12-29T10:31:06;3.83;;;3.53;;
7539;SDS011;3811;49.006;12.076;2022-12-29T10:33:40;4.83;;;3.77;;
7539;SDS011;3811;49.006;12.076;2022-12-29T10:36:10;3.87;;;3.47;;
7539;SDS011;3811;49.006;12.076;2022-12-29T10:38:43;5.27;;;3.90;;
7539;SDS011;3811;49.006;12.076;2022-12-29T10:41:18;4.97;;;3.93;;
7539;SDS011;3811;49.006;12.076;2022-12-29T10:43:52;4.33;;;3.70;;
7539;SDS011;3811;49.006;12.076;2022-12-29T10:46:24;4.17;;;3.80;;
7539;SDS011;3811;49.006;12.076;2022-12-29T10:48:54;5.27;;;4.53;;
7539;SDS011;3811;49.006;12.076;2022-12-29T10:51:22;4.00;;;3.50;;
7539;SDS011;3811;49.006;12.076;2022-12-29T10:53:53;3.67;;;3.37;;
7539;SDS011;3811;49.006;12.076;2022-12-29T10:56:27;6.10;;;3.37;;
7539;SDS011;3811;49.006;12.076;2022-12-29T11:01:37;5.53;;;3.87;;
7539;SDS011;3811;49.006;12.076;2022-12-29T11:04:16;4.63;;;3.93;;
7539;SDS011;3811;49.006;12.076;2022-12-29T11:06:47;3.93;;;3.40;;
7539;SDS011;3811;49.006;12.076;2022-12-29T11:09:15;3.93;;;3.53;;
7539;SDS011;3811;49.006;12.076;2022-12-29T11:11:47;4.17;;;3.67;;
7539;SDS011;3811;49.006;12.076;2022-12-29T11:14:16;5.20;;;4.40;;
7539;SDS011;3811;49.006;12.076;2022-12-29T11:16:50;4.13;;;3.73;;
7539;SDS011;3811;49.006;12.076;2022-12-29T11:19:24;4.47;;;3.60;;
7539;SDS011;3811;49.006;12.076;2022-12-29T11:21:53;5.90;;;3.83;;
7539;SDS011;3811;49.006;12.076;2022-12-29T11:24:21;4.23;;;3.07;;
7539;SDS011;3811;49.006;12.076;2022-12-29T11:26:50;5.70;;;3.37;;
7539;SDS011;3811;49.006;12.076;2022-12-29T11:29:26;4.73;;;3.80;;
7539;SDS011;3811;49.006;12.076;2022-12-29T11:31:56;3.60;;;3.30;;
7539;SDS011;3811;49.006;12.076;2022-12-29T11:34:25;4.53;;;3.70;;
7539;SDS011;3811;49.006;12.076;2022-12-29T11:36:58;4.03;;;3.27;;
7539;SDS011;3811;49.006;12.076;2022-12-29T11:39:29;8.00;;;3.47;;
7539;SDS011;3811;49.006;12.076;2022-12-29T11:41:59;3.70;;;3.40;;
7539;SDS011;3811;49.006;12.076;2022-12-29T11:44:29;4.33;;;3.93;;
7539;SDS011;3811;49.006;12.076;2022-12-29T11:47:03;3.97;;;3.37;;
7539;SDS011;3811;49.006;12.076;2022-12-29T11:49:31;4.93;;;3.60;;
7539;SDS011;3811;49.006;12.076;2022-12-29T11:51:58;4.37;;;3.50;;
7539;SDS011;3811;49.006;12.076;2022-12-29T11:54:27;4.67;;;3.13;;
7539;SDS011;3811;49.006;12.076;2022-12-29T11:56:56;5.80;;;3.43;;
7539;SDS011;3811;49.006;12.076;2022-12-29T11:59:25;4.27;;;3.20;;
7539;SDS011;3811;49.006;12.076;2022-12-29T12:02:08;5.33;;;3.60;;
7539;SDS011;3811;49.006;12.076;2022-12-29T12:05:00;2.97;;;2.77;;
7539;SDS011;3811;49.006;12.076;2022-12-29T12:07:34;4.80;;;3.33;;
7539;SDS011;3811;49.006;12.076;2022-12-29T12:10:08;3.60;;;3.30;;
7539;SDS011;3811;49.006;12.076;2022-12-29T12:12:46;4.77;;;3.53;;
7539;SDS011;3811;49.006;12.076;2022-12-29T12:15:17;4.40;;;3.20;;
7539;SDS011;3811;49.006;12.076;2022-12-29T12:17:57;3.70;;;3.27;;
7539;SDS011;3811;49.006;12.076;2022-12-29T12:20:34;4.47;;;3.00;;
7539;SDS011;3811;49.006;12.076;2022-12-29T12:23:16;5.43;;;3.03;;
7539;SDS011;3811;49.006;12.076;2022-12-29T12:25:54;3.70;;;3.40;;
7539;SDS011;3811;49.006;12.076;2022-12-29T12:28:36;3.60;;;3.30;;
7539;SDS011;3811;49.006;12.076;2022-12-29T12:31:13;4.83;;;3.47;;
7539;SDS011;3811;49.006;12.076;2022-12-29T12:33:46;3.43;;;3.13;;
7539;SDS011;3811;49.006;12.076;2022-12-29T12:36:24;3.73;;;3.07;;
7539;SDS011;3811;49.006;12.076;2022-12-29T12:39:10;4.80;;;3.60;;
7539;SDS011;3811;49.006;12.076;2022-12-29T12:41:42;3.50;;;3.20;;
7539;SDS011;3811;49.006;12.076;2022-12-29T12:44:17;4.20;;;3.13;;
7539;SDS011;3811;49.006;12.076;2022-12-29T12:47:04;4.43;;;3.67;;
7539;SDS011;3811;49.006;12.076;2022-12-29T12:52:56;4.23;;;3.50;;
7539;SDS011;3811;49.006;12.076;2022-12-29T12:55:38;3.70;;;3.20;;
7539;SDS011;3811;49.006;12.076;2022-12-29T12:58:19;2.93;;;2.73;;
7539;SDS011;3811;49.006;12.076;2022-12-29T13:00:57;3.50;;;3.20;;
7539;SDS011;3811;49.006;12.076;2022-12-29T13:03:42;4.10;;;2.70;;
7539;SDS011;3811;49.006;12.076;2022-12-29T13:06:21;2.93;;;2.63;;
7539;SDS011;3811;49.006;12.076;2022-12-29T13:08:57;6.97;;;2.93;;
7539;SDS011;3811;49.006;12.076;2022-12-29T13:11:34;4.00;;;2.73;;
7539;SDS011;3811;49.006;12.076;2022-12-29T13:14:29;3.80;;;2.70;;
7539;SDS011;3811;49.006;12.076;2022-12-29T13:17:08;2.43;;;2.23;;
7539;SDS011;3811;49.006;12.076;2022-12-29T13:19:45;2.30;;;2.10;;
7539;SDS011;3811;49.006;12.076;2022-12-29T13:22:21;3.53;;;2.63;;
7539;SDS011;3811;49.006;12.076;2022-12-29T13:25:01;2.60;;;2.20;;
7539;SDS011;3811;49.006;12.076;2022-12-29T13:27:49;4.00;;;2.53;;
7539;SDS011;3811;49.006;12.076;2022-12-29T13:30:21;4.30;;;2.10;;
7539;SDS011;3811;49.006;12.076;2022-12-29T13:32:54;2.10;;;2.00;;
7539;SDS011;3811;49.006;12.076;2022-12-29T13:35:37;2.27;;;2.07;;
7539;SDS011;3811;49.006;12.076;2022-12-29T13:38:25;4.93;;;2.30;;
7539;SDS011;3811;49.006;12.076;2022-12-29T13:41:00;3.30;;;2.53;;
7539;SDS011;3811;49.006;12.076;2022-12-29T13:43:30;1.97;;;1.77;;
7539;SDS011;3811;49.006;12.076;2022-12-29T13:46:01;2.40;;;2.20;;
7539;SDS011;3811;49.006;12.076;2022-12-29T13:48:37;3.67;;;1.97;;
7539;SDS011;3811;49.006;12.076;2022-12-29T13:51:08;2.30;;;2.20;;
7539;SDS011;3811;49.006;12.076;2022-12-29T13:53:37;2.13;;;2.03;;
7539;SDS011;3811;49.006;12.076;2022-12-29T13:56:17;3.00;;;1.73;;
7539;SDS011;3811;49.006;12.076;2022-12-29T13:58:50;2.37;;;2.00;;
7539;SDS011;3811;49.006;12.076;2022-12-29T14:01:24;2.23;;;1.83;;
7539;SDS011;3811;49.006;12.076;2022-12-29T14:03:57;3.20;;;2.17;;
7539;SDS011;3811;49.006;12.076;2022-12-29T14:06:26;4.07;;;1.97;;
7539;SDS011;3811;49.006;12.076;2022-12-29T14:08:57;2.30;;;1.80;;
7539;SDS011;3811;49.006;12.076;2022-12-29T14:11:28;2.57;;;1.83;;
7539;SDS011;3811;49.006;12.076;2022-12-29T14:13:59;3.67;;;2.37;;
7539;SDS011;3811;49.006;12.076;2022-12-29T14:16:39;5.67;;;2.03;;
7539;SDS011;3811;49.006;12.076;2022-12-29T14:19:12;1.83;;;1.73;;
7539;SDS011;3811;49.006;12.076;2022-12-29T14:21:49;1.97;;;1.87;;
7539;SDS011;3811;49.006;12.076;2022-12-29T14:29:44;2.73;;;1.70;;
7539;SDS011;3811;49.006;12.076;2022-12-29T14:38:19;1.60;;;1.50;;
7539;SDS011;3811;49.006;12.076;2022-12-29T14:40:52;1.60;;;1.50;;
7539;SDS011;3811;49.006;12.076;2022-12-29T14:43:41;2.83;;;2.23;;
7539;SDS011;3811;49.006;12.076;2022-12-29T14:46:18;1.80;;;1.70;;
7539;SDS011;3811;49.006;12.076;2022-12-29T14:48:45;3.60;;;1.70;;
7539;SDS011;3811;49.006;12.076;2022-12-29T14:51:16;3.60;;;1.80;;
7539;SDS011;3811;49.006;12.076;2022-12-29T14:53:46;5.50;;;2.07;;
7539;SDS011;3811;49.006;12.076;2022-12-29T14:56:16;5.83;;;3.83;;
7539;SDS011;3811;49.006;12.076;2022-12-29T14:58:49;1.80;;;1.70;;
7539;SDS011;3811;49.006;12.076;2022-12-29T15:01:20;2.23;;;1.50;;
7539;SDS011;3811;49.006;12.076;2022-12-29T15:03:49;2.83;;;1.77;;
7539;SDS011;3811;49.006;12.076;2022-12-29T15:06:17;1.90;;;1.80;;
7539;SDS011;3811;49.006;12.076;2022-12-29T15:08:48;2.10;;;1.90;;
7539;SDS011;3811;49.006;12.076;2022-12-29T15:11:18;3.77;;;1.70;;
7539;SDS011;3811;49.006;12.076;2022-12-29T15:13:45;4.53;;;2.40;;
7539;SDS011;3811;49.006;12.076;2022-12-29T15:16:25;4.40;;;3.40;;
7539;SDS011;3811;49.006;12.076;2022-12-29T15:18:55;2.97;;;2.00;;
7539;SDS011;3811;49.006;12.076;2022-12-29T15:21:24;2.83;;;1.93;;
7539;SDS011;3811;49.006;12.076;2022-12-29T15:23:52;1.77;;;1.67;;
7539;SDS011;3811;49.006;12.076;2022-12-29T15:26:20;2.37;;;2.03;;
7539;SDS011;3811;49.006;12.076;2022-12-29T15:28:49;2.93;;;2.30;;
7539;SDS011;3811;49.006;12.076;2022-12-29T15:31:18;2.30;;;2.10;;
7539;SDS011;3811;49.006;12.076;2022-12-29T15:33:47;2.47;;;2.27;;
7539;SDS011;3811;49.006;12.076;2022-12-29T15:36:18;5.67;;;3.37;;
7539;SDS011;3811;49.006;12.076;2022-12-29T15:38:45;2.37;;;1.90;;
7539;SDS011;3811;49.006;12.076;2022-12-29T15:41:24;4.03;;;2.13;;
7539;SDS011;3811;49.006;12.076;2022-12-29T15:43:54;2.53;;;1.90;;
7539;SDS011;3811;49.006;12.076;2022-12-29T15:46:23;1.93;;;1.57;;
7539;SDS011;3811;49.006;12.076;2022-12-29T15:48:52;5.23;;;2.00;;
7539;SDS011;3811;49.006;12.076;2022-12-29T15:51:20;2.80;;;1.53;;
7539;SDS011;3811;49.006;12.076;2022-12-29T15:53:52;4.73;;;2.13;;
7539;SDS011;3811;49.006;12.076;2022-12-29T15:56:20;2.33;;;1.67;;
7539;SDS011;3811;49.006;12.076;2022-12-29T15:58:49;2.00;;;1.80;;
7539;SDS011;3811;49.006;12.076;2022-12-29T16:01:17;4.13;;;2.47;;
7539;SDS011;3811;49.006;12.076;2022-12-29T16:03:45;1.83;;;1.70;;
7539;SDS011;3811;49.006;12.076;2022-12-29T16:06:26;2.00;;;1.83;;